Time;durP1;ratioP1;P1;durP2;ratioP2;P2;SDS_P1;SDS_P2;PMS_P1;PMS_P2;Temp;Humidity;BMP_temperature;BMP_pressure;BME280_temperature;BME280_humidity;BME280_pressure;Samples;Min_cycle;Max_cycle;Signal;HPM_P1;HPM_P2
2023/12/14 00:00:18;;;;;;;7.13;6.83;;;9.50;37.50;;;;;;4910749;29;20422;-78
2023/12/14 00:02:51;;;;;;;8.17;7.77;;;9.60;37.20;;;;;;4922761;29;20181;-77
2023/12/14 00:05:16;;;;;;;7.40;7.10;;;9.60;37.20;;;;;;4897783;29;20817;-77
2023/12/14 00:07:45;;;;;;;7.40;7.10;;;9.80;37.10;;;;;;4918574;29;20476;-77
2023/12/14 00:10:18;;;;;;;7.63;7.23;;;9.90;36.90;;;;;;4914154;29;20308;-77
2023/12/14 00:12:48;;;;;;;7.40;7.10;;;9.90;36.90;;;;;;4916717;29;20444;-77
2023/12/14 00:15:14;;;;;;;7.43;7.23;;;10.00;35.00;;;;;;4916111;29;20416;-77
2023/12/14 00:17:45;;;;;;;7.70;7.20;;;9.80;36.40;;;;;;4928209;29;20443;-76
2023/12/14 00:20:18;;;;;;;7.93;7.63;;;9.70;36.10;;;;;;4922544;29;20676;-77
2023/12/14 00:23:17;;;;;;;7.87;7.57;;;9.60;37.00;;;;;;4916474;29;20449;-76
2023/12/14 00:25:57;;;;;;;7.97;7.67;;;9.60;37.00;;;;;;4922775;29;20524;-76
2023/12/14 00:28:27;;;;;;;7.87;7.50;;;9.70;36.30;;;;;;4926470;29;20471;-77
2023/12/14 00:31:06;;;;;;;;;;;;;;;;;;;;;
2023/12/14 00:33:32;;;;;;;8.40;8.10;;;9.60;36.70;;;;;;4917712;29;20791;-77
2023/12/14 00:36:06;;;;;;;7.87;7.50;;;9.60;37.00;;;;;;4897433;29;20437;-77
2023/12/14 00:38:39;;;;;;;7.60;7.40;;;9.50;37.70;;;;;;4922842;29;20518;-77
2023/12/14 00:41:11;;;;;;;7.57;7.27;;;9.20;38.10;;;;;;4918733;29;20507;-76
2023/12/14 00:43:38;;;;;;;7.03;6.83;;;9.20;39.00;;;;;;4923812;29;20974;-76
2023/12/14 00:46:16;;;;;;;7.63;7.33;;;9.20;39.10;;;;;;4905700;29;20540;-76
2023/12/14 00:48:44;;;;;;;7.30;7.10;;;9.20;39.20;;;;;;4920672;29;20467;-75
2023/12/14 00:51:19;;;;;;;8.17;7.77;;;9.20;38.70;;;;;;4898581;29;20847;-76
2023/12/14 00:53:45;;;;;;;7.50;7.20;;;9.10;39.00;;;;;;4903734;29;20429;-77
2023/12/14 00:56:13;;;;;;;7.60;7.30;;;9.30;39.30;;;;;;4897535;29;20532;-77
2023/12/14 00:58:41;;;;;;;7.27;6.97;;;9.20;38.60;;;;;;4918131;29;20574;-77
2023/12/14 01:01:11;;;;;;;7.97;7.70;;;9.20;38.10;;;;;;4902370;29;20433;-77
2023/12/14 01:03:39;;;;;;;7.90;7.60;;;9.30;38.30;;;;;;4922579;29;20432;-76
2023/12/14 01:06:06;;;;;;;8.23;7.80;;;9.20;38.30;;;;;;4922589;29;20852;-76
2023/12/14 01:08:32;;;;;;;7.73;7.43;;;9.30;38.60;;;;;;4916227;29;20970;-76
2023/12/14 01:11:00;;;;;;;7.60;7.20;;;9.40;38.00;;;;;;4899879;29;20425;-77
2023/12/14 01:13:31;;;;;;;7.80;7.60;;;9.40;37.10;;;;;;4930575;29;20280;-76
2023/12/14 01:15:59;;;;;;;7.90;7.50;;;9.60;37.50;;;;;;4920017;29;20437;-77
2023/12/14 01:18:27;;;;;;;7.33;7.13;;;9.70;36.80;;;;;;4899191;29;20858;-77
2023/12/14 01:20:53;;;;;;;8.27;7.87;;;9.90;37.00;;;;;;4914036;29;20426;-76
2023/12/14 01:23:21;;;;;;;7.60;7.30;;;9.90;35.30;;;;;;4915699;29;20773;-76
2023/12/14 01:25:51;;;;;;;7.73;7.43;;;9.90;35.00;;;;;;4899661;29;20200;-77
2023/12/14 01:28:19;;;;;;;8.33;7.93;;;9.70;36.00;;;;;;4914673;29;20507;-76
2023/12/14 01:30:48;;;;;;;7.50;7.20;;;9.80;36.00;;;;;;4915714;29;20412;-76
2023/12/14 01:33:13;;;;;;;7.63;7.13;;;9.60;36.10;;;;;;4918247;29;20917;-76
2023/12/14 01:35:39;;;;;;;7.10;6.90;;;9.40;37.40;;;;;;4923834;29;20522;-77
2023/12/14 01:38:05;;;;;;;7.13;6.83;;;9.40;38.00;;;;;;4915409;29;20185;-77
2023/12/14 01:40:34;;;;;;;6.80;6.50;;;9.20;38.20;;;;;;4911156;29;20276;-77
2023/12/14 01:43:10;;;;;;;7.37;7.07;;;9.20;38.70;;;;;;4902733;29;20492;-77
2023/12/14 01:45:36;;;;;;;7.27;6.97;;;9.10;39.00;;;;;;4919713;29;20439;-76
2023/12/14 01:48:04;;;;;;;6.97;6.77;;;9.10;39.20;;;;;;4913982;29;20483;-77
2023/12/14 01:50:30;;;;;;;7.30;7.03;;;9.20;39.90;;;;;;4907613;29;20496;-77
2023/12/14 01:52:56;;;;;;;7.10;6.90;;;9.30;39.10;;;;;;4921653;29;20507;-76
2023/12/14 01:55:22;;;;;;;7.63;7.33;;;9.30;38.40;;;;;;4929317;23;20181;-77
2023/12/14 01:57:47;;;;;;;7.33;7.13;;;9.40;38.60;;;;;;4898782;29;20229;-77
2023/12/14 02:00:38;;;;;;;7.77;7.47;;;9.40;37.20;;;;;;4919125;29;20212;-76
2023/12/14 02:03:04;;;;;;;7.57;7.27;;;9.30;37.40;;;;;;4918708;29;20631;-75
2023/12/14 02:05:30;;;;;;;7.27;7.07;;;9.20;38.20;;;;;;4922447;29;20428;-76
2023/12/14 02:07:56;;;;;;;7.87;7.57;;;9.10;38.30;;;;;;4925277;29;20215;-76
2023/12/14 02:10:22;;;;;;;7.20;7.00;;;9.10;38.70;;;;;;4917388;29;20195;-77
2023/12/14 02:12:47;;;;;;;7.27;6.97;;;9.20;38.80;;;;;;4903198;29;20440;-76
2023/12/14 02:15:13;;;;;;;7.30;7.10;;;9.20;38.30;;;;;;4914238;29;20236;-77
2023/12/14 02:17:38;;;;;;;7.20;6.90;;;9.10;38.40;;;;;;4915592;29;20215;-77
2023/12/14 02:20:05;;;;;;;7.97;7.67;;;9.00;39.00;;;;;;4914541;29;20653;-77
2023/12/14 02:22:50;;;;;;;7.63;7.33;;;8.80;39.80;;;;;;4919924;29;20341;-76
2023/12/14 02:25:16;;;;;;;7.70;7.40;;;8.80;39.80;;;;;;4914524;29;20913;-76
2023/12/14 02:27:42;;;;;;;7.67;7.37;;;8.70;39.70;;;;;;4900211;29;21024;-77
2023/12/14 02:30:08;;;;;;;7.53;7.23;;;8.80;40.20;;;;;;4920974;29;20440;-77
2023/12/14 02:32:34;;;;;;;7.33;6.93;;;8.80;40.50;;;;;;4913221;29;20803;-77
2023/12/14 02:34:59;;;;;;;7.63;7.43;;;8.80;40.10;;;;;;4914516;29;20431;-76
2023/12/14 02:37:25;;;;;;;7.17;6.97;;;8.80;39.70;;;;;;4894214;29;20297;-75
2023/12/14 02:39:51;;;;;;;7.60;7.27;;;8.80;39.50;;;;;;4915561;29;20646;-76
2023/12/14 02:42:16;;;;;;;7.60;7.40;;;8.80;40.20;;;;;;4919021;29;20181;-77
2023/12/14 02:44:42;;;;;;;7.60;7.30;;;8.70;40.30;;;;;;4916567;29;20965;-77
2023/12/14 02:47:07;;;;;;;7.47;7.27;;;8.60;40.70;;;;;;4913681;29;20623;-75
2023/12/14 02:49:33;;;;;;;7.17;6.87;;;8.50;41.30;;;;;;4917622;29;20193;-76
2023/12/14 02:51:59;;;;;;;7.30;7.07;;;8.50;41.30;;;;;;4914531;29;20180;-76
2023/12/14 02:54:24;;;;;;;6.33;6.13;;;8.50;41.00;;;;;;4897396;29;20492;-76
2023/12/14 02:56:50;;;;;;;7.40;7.10;;;8.50;40.70;;;;;;4919324;29;20220;-77
2023/12/14 02:59:15;;;;;;;7.03;6.83;;;8.50;41.30;;;;;;4900525;29;20592;-76
2023/12/14 03:01:41;;;;;;;6.87;6.67;;;8.50;41.30;;;;;;4904806;29;20212;-76
2023/12/14 03:04:07;;;;;;;7.80;7.07;;;8.50;41.30;;;;;;4923073;29;20193;-77
2023/12/14 03:06:33;;;;;;;7.17;6.70;;;8.60;41.40;;;;;;4915139;29;20240;-77
2023/12/14 03:08:58;;;;;;;8.20;7.73;;;8.70;40.80;;;;;;4917630;29;20429;-77
2023/12/14 03:11:24;;;;;;;7.13;6.93;;;8.70;40.30;;;;;;4912266;29;20227;-77
2023/12/14 03:13:50;;;;;;;7.13;6.83;;;8.70;40.30;;;;;;4917724;29;20565;-77
2023/12/14 03:16:18;;;;;;;7.43;7.13;;;8.90;41.00;;;;;;4900484;29;20453;-76
2023/12/14 03:18:44;;;;;;;7.50;7.30;;;8.90;39.10;;;;;;4916850;29;20185;-76
2023/12/14 03:21:09;;;;;;;7.57;7.37;;;8.90;39.60;;;;;;4900106;29;20437;-77
2023/12/14 03:23:35;;;;;;;7.33;7.13;;;8.80;39.50;;;;;;4910104;29;20287;-77
2023/12/14 03:26:01;;;;;;;8.07;7.53;;;8.70;40.10;;;;;;4928710;29;20747;-77
2023/12/14 03:28:27;;;;;;;7.17;6.97;;;8.70;40.70;;;;;;4935657;29;20207;-75
2023/12/14 03:30:52;;;;;;;7.47;7.17;;;8.90;40.80;;;;;;4922254;29;20188;-75
2023/12/14 03:33:18;;;;;;;7.50;7.30;;;9.10;39.40;;;;;;4928767;29;20176;-76
2023/12/14 03:35:44;;;;;;;7.50;7.30;;;9.20;38.40;;;;;;4912424;29;20212;-76
2023/12/14 03:38:09;;;;;;;8.17;7.80;;;9.20;38.20;;;;;;4928364;29;20180;-77
2023/12/14 03:40:35;;;;;;;7.80;7.47;;;9.30;38.20;;;;;;4912259;29;20192;-76
2023/12/14 03:43:03;;;;;;;7.60;7.27;;;9.20;38.00;;;;;;4919444;29;20184;-77
2023/12/14 03:45:28;;;;;;;7.63;7.43;;;9.20;38.30;;;;;;4923199;29;20505;-76
2023/12/14 03:47:54;;;;;;;7.83;7.53;;;9.20;38.60;;;;;;4921515;29;20483;-76
2023/12/14 03:50:19;;;;;;;8.03;7.73;;;9.40;39.00;;;;;;4918785;29;20184;-77
2023/12/14 03:52:45;;;;;;;7.90;7.60;;;9.60;38.10;;;;;;4921672;29;20200;-77
2023/12/14 03:55:10;;;;;;;7.43;7.23;;;9.60;36.80;;;;;;4916799;29;20181;-75
2023/12/14 03:57:36;;;;;;;8.00;7.57;;;9.60;36.90;;;;;;4921703;29;20224;-77
2023/12/14 04:00:02;;;;;;;8.00;7.70;;;9.60;37.20;;;;;;4916555;29;20188;-76
2023/12/14 04:02:27;;;;;;;7.43;7.23;;;9.50;37.90;;;;;;4917216;29;20189;-77
2023/12/14 04:04:53;;;;;;;7.87;7.67;;;9.40;38.00;;;;;;4923082;29;20921;-77
2023/12/14 04:07:19;;;;;;;8.37;8.07;;;9.20;38.40;;;;;;4900722;29;20220;-76
2023/12/14 04:09:45;;;;;;;8.13;7.73;;;9.10;39.10;;;;;;4915167;29;20192;-75
2023/12/14 04:12:11;;;;;;;8.50;8.20;;;9.10;39.20;;;;;;4919626;29;20471;-76
2023/12/14 04:14:36;;;;;;;7.90;7.60;;;9.00;40.00;;;;;;4916262;29;20468;-76
2023/12/14 04:17:02;;;;;;;8.10;7.80;;;8.90;40.70;;;;;;4915864;29;20215;-76
2023/12/14 04:19:27;;;;;;;8.43;8.20;;;8.70;41.50;;;;;;4902094;29;20236;-76
2023/12/14 04:21:53;;;;;;;8.53;8.23;;;8.70;42.70;;;;;;4905160;29;20197;-76
2023/12/14 04:24:18;;;;;;;8.23;7.93;;;8.60;43.00;;;;;;4916361;29;20219;-77
2023/12/14 04:26:44;;;;;;;8.13;7.83;;;8.60;43.50;;;;;;4906231;29;20255;-77
2023/12/14 04:29:10;;;;;;;8.53;8.03;;;8.70;43.00;;;;;;4902177;29;20621;-77
2023/12/14 04:31:35;;;;;;;7.67;7.47;;;8.90;42.60;;;;;;4920618;29;20737;-77
2023/12/14 04:34:01;;;;;;;8.50;8.00;;;8.80;41.70;;;;;;4917954;29;20188;-76
2023/12/14 04:36:26;;;;;;;7.90;7.60;;;8.90;41.70;;;;;;4926638;29;20243;-77
2023/12/14 04:38:52;;;;;;;8.70;8.40;;;8.80;42.00;;;;;;4924153;29;20251;-77
2023/12/14 04:41:17;;;;;;;7.80;7.50;;;8.90;41.70;;;;;;4914092;29;20270;-76
2023/12/14 04:43:43;;;;;;;8.57;8.17;;;8.90;41.70;;;;;;4925428;29;20192;-76
2023/12/14 04:46:08;;;;;;;8.23;7.93;;;8.90;41.70;;;;;;4921077;29;20207;-76
2023/12/14 04:48:34;;;;;;;8.13;7.87;;;8.90;41.70;;;;;;4923826;29;20295;-76
2023/12/14 04:51:00;;;;;;;8.10;7.73;;;8.90;42.00;;;;;;4928595;29;20259;-76
2023/12/14 04:53:25;;;;;;;8.50;8.10;;;9.00;41.70;;;;;;4927952;29;20192;-76
2023/12/14 04:55:51;;;;;;;8.27;7.97;;;9.00;41.80;;;;;;4923343;29;20212;-77
2023/12/14 04:58:16;;;;;;;8.40;8.00;;;8.90;41.70;;;;;;4926604;29;20716;-77
2023/12/14 05:00:42;;;;;;;8.53;8.17;;;8.90;41.70;;;;;;4923504;29;20274;-76
2023/12/14 05:03:07;;;;;;;8.80;8.30;;;8.90;41.70;;;;;;4926436;29;20192;-76
2023/12/14 05:36:37;;;;;;;10.97;10.40;;;8.70;43.10;;;;;;5944650;23;22032;-77
2023/12/14 05:39:04;;;;;;;10.17;9.67;;;8.80;43.50;;;;;;4919934;29;20435;-76
2023/12/14 05:41:30;;;;;;;8.83;8.33;;;8.90;43.00;;;;;;4900758;29;20184;-77
2023/12/14 05:43:55;;;;;;;9.33;8.93;;;8.90;43.30;;;;;;4914908;29;20475;-77
2023/12/14 05:46:22;;;;;;;8.00;7.70;;;8.80;43.80;;;;;;5079365;23;20225;-76
2023/12/14 05:48:49;;;;;;;9.13;8.73;;;8.90;44.40;;;;;;4928012;29;20248;-77
2023/12/14 05:51:29;;;;;;;9.40;8.90;;;8.90;44.20;;;;;;4923764;29;20425;-76
2023/12/14 05:53:55;;;;;;;9.60;9.20;;;8.90;44.10;;;;;;4906913;29;20465;-77
2023/12/14 05:56:20;;;;;;;9.50;9.10;;;9.00;44.80;;;;;;4929929;29;20504;-77
2023/12/14 05:58:46;;;;;;;9.00;8.60;;;9.20;44.50;;;;;;4915085;29;20196;-75
2023/12/14 06:01:11;;;;;;;8.00;7.70;;;9.30;43.80;;;;;;4915203;29;20196;-77
2023/12/14 06:03:37;;;;;;;8.60;8.20;;;9.40;43.40;;;;;;4915670;29;20218;-75
2023/12/14 06:06:02;;;;;;;8.43;8.00;;;9.40;42.00;;;;;;4915206;29;20376;-77
2023/12/14 06:08:28;;;;;;;9.23;8.90;;;9.30;42.00;;;;;;4914748;29;20228;-77
2023/12/14 06:10:53;;;;;;;9.80;9.40;;;9.30;43.10;;;;;;4915562;29;20197;-77
2023/12/14 06:13:19;;;;;;;9.17;8.77;;;9.20;42.10;;;;;;4915733;29;20654;-77
2023/12/14 06:15:44;;;;;;;10.97;10.17;;;9.30;43.50;;;;;;4914963;29;20216;-76
2023/12/14 06:18:10;;;;;;;10.00;9.60;;;9.20;42.60;;;;;;4913270;29;20543;-76
2023/12/14 06:20:35;;;;;;;10.10;9.67;;;9.20;42.80;;;;;;4915432;29;20587;-76
2023/12/14 06:23:01;;;;;;;10.60;10.07;;;9.20;43.60;;;;;;4920828;29;20192;-78
2023/12/14 06:25:26;;;;;;;10.23;9.83;;;9.20;43.00;;;;;;4920371;29;20205;-79
2023/12/14 06:27:52;;;;;;;9.53;9.20;;;9.20;43.40;;;;;;4915829;29;20224;-78
2023/12/14 06:30:17;;;;;;;9.80;9.40;;;9.40;43.70;;;;;;4917070;29;20217;-78
2023/12/14 06:32:43;;;;;;;9.17;8.87;;;9.60;42.20;;;;;;4903006;29;20215;-78
2023/12/14 06:35:08;;;;;;;8.80;8.40;;;9.80;42.40;;;;;;4921440;29;20193;-78
2023/12/14 06:37:34;;;;;;;9.97;9.67;;;10.00;40.70;;;;;;4919665;29;20227;-79
2023/12/14 06:39:59;;;;;;;10.00;9.60;;;10.20;39.40;;;;;;4911676;29;20191;-78
2023/12/14 06:42:27;;;;;;;10.23;9.83;;;10.20;38.00;;;;;;4906949;29;20192;-78
2023/12/14 06:44:53;;;;;;;10.33;9.83;;;10.30;37.90;;;;;;4920602;29;20270;-79
2023/12/14 06:47:18;;;;;;;9.97;9.57;;;10.30;36.80;;;;;;4919150;29;20479;-78
2023/12/14 06:49:44;;;;;;;11.23;10.73;;;10.20;37.30;;;;;;4919521;29;20185;-77
2023/12/14 06:52:10;;;;;;;9.67;9.27;;;10.00;37.10;;;;;;4919183;29;20185;-77
2023/12/14 06:54:35;;;;;;;10.50;10.10;;;10.10;38.20;;;;;;4918544;29;20189;-78
2023/12/14 06:57:01;;;;;;;11.10;10.30;;;10.00;37.10;;;;;;4920801;29;20204;-77
2023/12/14 06:59:26;;;;;;;11.40;10.93;;;9.90;38.40;;;;;;4920847;29;20204;-78
2023/12/14 07:01:52;;;;;;;10.20;9.80;;;9.70;39.40;;;;;;4919408;29;20235;-78
2023/12/14 07:04:19;;;;;;;10.27;9.77;;;9.60;40.00;;;;;;4918692;29;20277;-77
2023/12/14 07:17:46;;;;;;;10.53;10.03;;;9.70;40.80;;;;;;5899824;23;22195;-77
2023/12/14 07:20:12;;;;;;;11.27;10.67;;;9.70;39.80;;;;;;4926475;29;20457;-78
2023/12/14 07:22:37;;;;;;;10.67;10.17;;;9.80;39.00;;;;;;4928437;29;20216;-79
2023/12/14 07:25:04;;;;;;;10.83;10.43;;;9.80;39.30;;;;;;4920455;29;20944;-76
2023/12/14 08:23:47;;;;;;;12.67;12.07;;;10.00;37.80;;;;;;4856991;29;20529;-79
2023/12/14 08:50:05;;;;;;;11.50;10.83;;;10.40;36.90;;;;;;5175618;23;20495;-79
2023/12/14 08:52:41;;;;;;;12.43;11.93;;;10.50;35.90;;;;;;4919521;29;20439;-79
2023/12/14 09:01:59;;;;;;;12.37;11.77;;;10.40;35.70;;;;;;4867088;29;20450;-77
2023/12/14 09:04:30;;;;;;;13.93;13.33;;;10.00;37.00;;;;;;4894356;29;20457;-80
2023/12/14 09:10:09;;;;;;;13.43;12.73;;;9.80;39.40;;;;;;4899235;29;20433;-78
2023/12/14 09:13:55;;;;;;;13.80;13.10;;;9.80;40.00;;;;;;4884572;29;20432;-80
2023/12/14 09:17:23;;;;;;;13.50;12.90;;;10.00;38.40;;;;;;4789823;29;20482;-78
2023/12/14 09:20:11;;;;;;;13.47;12.90;;;9.90;39.00;;;;;;4791634;29;20440;-79
2023/12/14 09:26:26;;;;;;;12.70;12.00;;;9.70;40.40;;;;;;4830915;29;20443;-79
2023/12/14 09:28:51;;;;;;;13.77;13.07;;;9.60;40.60;;;;;;4842653;29;20472;-79
2023/12/14 09:39:41;;;;;;;13.60;12.50;;;9.50;42.10;;;;;;4851547;29;20913;-78
2023/12/14 09:42:10;;;;;;;12.33;11.73;;;9.60;42.20;;;;;;4752852;30;20468;-78
2023/12/14 09:51:45;;;;;;;13.57;12.83;;;9.70;42.30;;;;;;4860361;29;20463;-78
2023/12/14 09:54:10;;;;;;;13.70;12.90;;;9.70;42.30;;;;;;4891656;29;20933;-78
2023/12/14 09:57:07;;;;;;;13.60;12.80;;;9.70;42.30;;;;;;4914150;29;20437;-78
2023/12/14 09:59:39;;;;;;;14.27;13.37;;;9.60;42.20;;;;;;4901601;29;20192;-78
2023/12/14 10:05:49;;;;;;;13.80;13.03;;;9.50;43.90;;;;;;4864787;29;20455;-78
2023/12/14 10:08:34;;;;;;;14.73;13.83;;;9.50;44.00;;;;;;4926873;29;20480;-77
2023/12/14 10:17:42;;;;;;;14.50;13.70;;;9.70;44.30;;;;;;5016880;23;20495;-77
2023/12/14 10:20:09;;;;;;;14.70;13.80;;;9.80;43.40;;;;;;4941506;29;20475;-78
2023/12/14 10:22:44;;;;;;;15.20;14.10;;;9.80;43.40;;;;;;4920151;29;20226;-77
2023/12/14 10:25:12;;;;;;;14.67;13.67;;;9.80;43.40;;;;;;4932264;29;20444;-79
2023/12/14 10:27:49;;;;;;;14.90;13.80;;;9.90;42.90;;;;;;4930576;29;20602;-79
2023/12/14 10:30:30;;;;;;;14.00;13.00;;;9.80;42.80;;;;;;4942511;29;20946;-79
2023/12/14 10:32:55;;;;;;;13.70;12.90;;;9.90;42.50;;;;;;4943120;29;20421;-79
2023/12/14 10:35:22;;;;;;;13.33;12.30;;;10.10;41.70;;;;;;4926123;29;20505;-79
2023/12/14 10:38:13;;;;;;;12.40;11.50;;;10.30;40.10;;;;;;4925676;29;20179;-79
2023/12/14 10:41:13;;;;;;;12.70;11.60;;;10.50;39.30;;;;;;4942394;29;20428;-79
2023/12/14 10:43:42;;;;;;;12.90;12.20;;;10.70;38.20;;;;;;4935504;29;20432;-78
2023/12/14 10:46:11;;;;;;;11.87;11.30;;;10.90;36.80;;;;;;4942553;29;20443;-79
2023/12/14 10:48:41;;;;;;;12.87;12.20;;;11.00;36.10;;;;;;4938430;29;20468;-80
2023/12/14 10:51:08;;;;;;;11.13;10.53;;;11.10;35.40;;;;;;4948273;29;20423;-79
2023/12/14 10:53:34;;;;;;;12.70;11.90;;;11.20;34.90;;;;;;4924752;29;20502;-78
2023/12/14 10:56:06;;;;;;;12.80;12.00;;;11.20;34.80;;;;;;4942366;29;20460;-79
2023/12/14 10:58:52;;;;;;;12.43;11.73;;;11.30;34.70;;;;;;4943112;29;20432;-79
2023/12/14 11:01:20;;;;;;;12.50;11.30;;;11.30;34.80;;;;;;4941711;29;20423;-78
2023/12/14 11:03:47;;;;;;;11.67;11.03;;;11.40;35.20;;;;;;4942317;29;20420;-78
2023/12/14 11:06:35;;;;;;;11.40;10.57;;;11.40;33.50;;;;;;4941279;29;20491;-77
2023/12/14 11:09:06;;;;;;;12.83;11.90;;;11.40;32.80;;;;;;4926133;29;20762;-78
2023/12/14 11:11:47;;;;;;;13.03;12.23;;;11.40;32.70;;;;;;4940080;29;20824;-77
2023/12/14 11:14:18;;;;;;;12.70;12.00;;;11.20;32.50;;;;;;4944010;29;20537;-76
2023/12/14 11:16:47;;;;;;;12.97;12.07;;;11.20;33.20;;;;;;4947411;29;20519;-76
2023/12/14 11:19:21;;;;;;;12.00;11.40;;;11.20;33.30;;;;;;4929146;29;20444;-76
2023/12/14 11:21:53;;;;;;;12.67;11.93;;;11.20;32.80;;;;;;4952568;29;20418;-77
2023/12/14 11:24:19;;;;;;;12.70;11.80;;;11.30;32.60;;;;;;4952935;29;20428;-77
2023/12/14 11:26:44;;;;;;;13.00;12.20;;;11.20;33.20;;;;;;4948697;29;20450;-76
2023/12/14 11:29:11;;;;;;;12.10;11.40;;;11.30;32.90;;;;;;4942444;29;20219;-78
2023/12/14 11:31:37;;;;;;;13.73;13.00;;;11.30;33.60;;;;;;4940331;29;20176;-77
2023/12/14 11:34:04;;;;;;;42.40;37.80;;;11.10;34.30;;;;;;4946945;29;20447;-77
2023/12/14 11:36:30;;;;;;;15.77;14.47;;;11.00;35.40;;;;;;4936801;29;20222;-77
2023/12/14 11:38:55;;;;;;;13.57;12.63;;;11.10;35.30;;;;;;4939357;29;20514;-77
2023/12/14 11:41:21;;;;;;;16.87;15.97;;;11.10;35.00;;;;;;4922300;29;20652;-78
2023/12/14 11:43:48;;;;;;;14.37;13.50;;;11.30;34.70;;;;;;4923649;29;20188;-78
2023/12/14 11:46:15;;;;;;;15.10;14.20;;;11.30;34.40;;;;;;4938838;29;20447;-77
2023/12/14 11:48:43;;;;;;;13.30;12.60;;;11.30;34.30;;;;;;4938354;29;20475;-78
2023/12/14 11:51:09;;;;;;;18.63;17.30;;;11.10;35.00;;;;;;4921645;29;20801;-77
2023/12/14 11:53:38;;;;;;;13.43;12.57;;;11.10;34.10;;;;;;4939131;29;20444;-78
2023/12/14 11:56:04;;;;;;;12.00;11.30;;;11.20;33.40;;;;;;4939704;29;20439;-78
2023/12/14 11:58:34;;;;;;;11.37;10.87;;;11.20;33.30;;;;;;4938910;29;20932;-77
2023/12/14 12:01:17;;;;;;;11.63;11.10;;;11.30;32.60;;;;;;4922341;29;20800;-78
2023/12/14 12:03:46;;;;;;;11.30;10.60;;;11.30;31.20;;;;;;4939806;29;20423;-78
2023/12/14 12:06:22;;;;;;;12.60;11.80;;;11.20;31.30;;;;;;4940110;29;20443;-79
2023/12/14 12:08:48;;;;;;;10.37;9.87;;;11.20;31.70;;;;;;4938692;29;20467;-79
2023/12/14 12:11:21;;;;;;;9.37;8.90;;;11.20;31.50;;;;;;4922131;29;20423;-78
2023/12/14 12:13:51;;;;;;;9.20;8.90;;;11.20;29.10;;;;;;4939323;29;20408;-78
2023/12/14 12:16:17;;;;;;;9.30;8.80;;;11.20;28.10;;;;;;4938776;29;20431;-78
2023/12/14 12:18:42;;;;;;;9.37;8.87;;;11.20;27.70;;;;;;4936641;29;20466;-78
2023/12/14 12:21:08;;;;;;;9.30;8.70;;;11.20;27.00;;;;;;4936932;29;20187;-77
2023/12/14 12:23:34;;;;;;;9.10;8.70;;;11.20;27.50;;;;;;4936586;29;20217;-78
2023/12/14 12:26:00;;;;;;;10.67;9.90;;;11.20;27.50;;;;;;4937532;29;20440;-78
2023/12/14 12:28:26;;;;;;;8.80;8.40;;;11.00;28.20;;;;;;4935176;29;20471;-77
2023/12/14 12:30:51;;;;;;;8.77;8.47;;;10.70;29.00;;;;;;4917788;29;20617;-77
2023/12/14 12:33:17;;;;;;;9.00;8.60;;;10.40;30.20;;;;;;4918250;29;20208;-77
2023/12/14 12:35:42;;;;;;;9.87;9.27;;;10.40;29.70;;;;;;4918377;29;20242;-76
2023/12/14 12:38:08;;;;;;;10.50;9.80;;;10.20;30.00;;;;;;4934818;29;20716;-77
2023/12/14 12:40:33;;;;;;;9.03;8.63;;;10.20;30.50;;;;;;4935226;29;20664;-78
2023/12/14 12:42:59;;;;;;;9.10;8.70;;;10.00;30.50;;;;;;4931564;29;20563;-78
2023/12/14 12:45:27;;;;;;;10.33;9.93;;;10.00;31.50;;;;;;4936349;29;20491;-78
2023/12/14 12:47:53;;;;;;;9.00;8.60;;;10.00;30.20;;;;;;4935841;29;20218;-77
2023/12/14 12:50:20;;;;;;;9.57;8.60;;;10.00;30.20;;;;;;4935744;29;20431;-77
2023/12/14 12:52:48;;;;;;;9.40;9.00;;;9.80;32.50;;;;;;4918812;29;20428;-76
2023/12/14 12:55:14;;;;;;;11.27;10.57;;;9.70;33.10;;;;;;4935225;29;20419;-77
2023/12/14 12:57:41;;;;;;;9.37;8.77;;;9.70;34.50;;;;;;4935567;29;20424;-76
2023/12/14 13:00:11;;;;;;;8.73;8.40;;;9.60;34.60;;;;;;4923544;29;20432;-77
2023/12/14 13:02:38;;;;;;;8.57;8.27;;;9.70;34.80;;;;;;4935735;29;20435;-77
2023/12/14 13:05:05;;;;;;;8.80;8.50;;;9.70;34.00;;;;;;4936316;29;20424;-77
2023/12/14 13:25:44;;;;;;;8.67;8.20;;;9.90;36.20;;;;;;5870920;23;21885;-74
2023/12/14 13:28:10;;;;;;;8.27;7.97;;;9.80;36.40;;;;;;4914970;29;20787;-76
2023/12/14 13:30:35;;;;;;;8.80;8.50;;;9.80;36.50;;;;;;4909157;29;20437;-75
2023/12/14 13:33:01;;;;;;;8.20;7.90;;;9.80;36.70;;;;;;4915582;29;20249;-76
2023/12/14 13:35:28;;;;;;;8.10;7.80;;;10.00;35.40;;;;;;4915287;29;20240;-76
2023/12/14 13:37:54;;;;;;;7.73;7.53;;;10.10;34.30;;;;;;4914937;29;20425;-75
2023/12/14 13:40:19;;;;;;;7.90;7.70;;;10.30;34.10;;;;;;4908539;29;20976;-76
2023/12/14 13:42:45;;;;;;;8.07;7.77;;;10.40;33.80;;;;;;4915549;29;20195;-76
2023/12/14 13:45:10;;;;;;;8.17;7.77;;;10.50;34.00;;;;;;4917393;29;20624;-76
2023/12/14 13:47:36;;;;;;;8.03;7.73;;;10.50;34.00;;;;;;4914454;29;20220;-76
2023/12/14 13:50:04;;;;;;;8.10;7.80;;;10.60;34.50;;;;;;4908218;29;20211;-78
2023/12/14 13:52:30;;;;;;;8.00;7.70;;;10.60;34.00;;;;;;4906307;29;20203;-77
2023/12/14 13:54:55;;;;;;;8.20;7.90;;;10.60;33.90;;;;;;4916522;29;20465;-78
2023/12/14 13:57:22;;;;;;;8.10;7.80;;;10.60;34.40;;;;;;4909763;29;20453;-76
2023/12/14 13:59:47;;;;;;;10.17;9.67;;;10.60;34.20;;;;;;4915106;29;20235;-77
2023/12/14 14:02:13;;;;;;;10.17;9.77;;;10.40;34.80;;;;;;4914934;29;20469;-75
2023/12/14 14:04:38;;;;;;;9.50;9.00;;;10.30;35.00;;;;;;4915266;29;20192;-77
2023/12/14 14:07:04;;;;;;;9.30;8.60;;;10.40;35.50;;;;;;4914223;29;20228;-76
2023/12/14 14:09:29;;;;;;;10.20;9.70;;;10.60;35.10;;;;;;4915958;29;20610;-76
2023/12/14 14:11:55;;;;;;;10.07;9.60;;;10.70;34.60;;;;;;4906029;29;20191;-76
2023/12/14 14:14:23;;;;;;;11.20;10.70;;;10.80;33.90;;;;;;4916096;29;20248;-77
2023/12/14 14:16:48;;;;;;;12.10;11.50;;;10.80;32.90;;;;;;4913992;29;20205;-76
2023/12/14 14:19:14;;;;;;;12.03;11.40;;;10.80;32.90;;;;;;4916350;29;20479;-76
2023/12/14 14:21:40;;;;;;;12.00;11.40;;;10.80;33.60;;;;;;4915324;29;20264;-76
2023/12/14 14:24:06;;;;;;;11.60;11.00;;;10.80;32.30;;;;;;4906347;29;20432;-76
2023/12/14 14:26:31;;;;;;;13.37;12.57;;;10.80;32.20;;;;;;4914561;29;20816;-75
2023/12/14 14:29:01;;;;;;;12.50;11.90;;;10.90;32.30;;;;;;4906006;29;20299;-75
2023/12/14 14:31:29;;;;;;;13.53;12.73;;;10.90;32.30;;;;;;4898405;29;20239;-77
2023/12/14 14:33:55;;;;;;;13.93;13.13;;;10.90;32.30;;;;;;4915142;29;20627;-76
2023/12/14 14:36:21;;;;;;;14.03;13.23;;;10.80;33.30;;;;;;4905126;29;20592;-76
2023/12/14 14:38:47;;;;;;;14.13;13.43;;;10.80;33.30;;;;;;4905442;29;20187;-76
2023/12/14 14:41:12;;;;;;;14.13;13.30;;;10.80;33.60;;;;;;4914688;29;20203;-76
2023/12/14 14:43:38;;;;;;;16.27;15.23;;;10.90;33.70;;;;;;4914936;29;20204;-76
2023/12/14 14:59:00;;;;;;;15.90;15.03;;;10.50;35.10;;;;;;5810375;23;20483;-77
2023/12/14 15:01:26;;;;;;;16.57;15.57;;;10.60;35.70;;;;;;4912693;29;20818;-76
2023/12/14 15:03:51;;;;;;;15.87;14.80;;;10.60;35.40;;;;;;4924632;29;20706;-76
2023/12/14 15:06:17;;;;;;;17.90;16.70;;;10.50;35.60;;;;;;4918688;29;20248;-76
2023/12/14 15:08:42;;;;;;;17.33;16.23;;;10.40;35.70;;;;;;4916212;29;20591;-76
2023/12/14 15:11:10;;;;;;;16.27;15.20;;;10.20;36.90;;;;;;4927221;29;20223;-76
2023/12/14 15:13:36;;;;;;;16.70;15.60;;;10.00;38.10;;;;;;4917007;29;20192;-77
2023/12/14 15:16:01;;;;;;;16.07;15.13;;;10.00;38.40;;;;;;4928203;29;20443;-76
2023/12/14 15:18:27;;;;;;;16.53;15.43;;;10.20;38.10;;;;;;4908132;29;20255;-76
2023/12/14 15:20:52;;;;;;;17.30;16.20;;;10.30;37.10;;;;;;4913931;29;20188;-76
2023/12/14 15:23:19;;;;;;;15.73;14.53;;;10.30;36.50;;;;;;4926804;29;20656;-76
2023/12/14 15:25:44;;;;;;;17.67;16.50;;;10.30;37.10;;;;;;4925334;29;20200;-76
2023/12/14 15:28:10;;;;;;;15.70;14.70;;;10.50;36.70;;;;;;4928323;29;20837;-76
2023/12/14 15:30:35;;;;;;;17.60;16.20;;;10.50;36.40;;;;;;4928631;29;20664;-76
2023/12/14 15:33:01;;;;;;;17.10;15.97;;;10.60;35.90;;;;;;4928455;29;20180;-76
2023/12/14 15:35:27;;;;;;;16.87;15.77;;;10.60;35.70;;;;;;4914724;29;20263;-76
2023/12/14 15:37:52;;;;;;;16.40;15.40;;;10.70;35.10;;;;;;4929885;29;20274;-77
2023/12/14 15:40:18;;;;;;;15.23;14.33;;;10.80;34.70;;;;;;4912193;29;20185;-76
2023/12/14 15:42:44;;;;;;;15.50;14.50;;;10.90;34.50;;;;;;4924116;29;20183;-78
2023/12/14 15:45:10;;;;;;;15.83;14.67;;;10.90;33.40;;;;;;4923817;29;20981;-76
2023/12/14 15:47:35;;;;;;;15.63;14.53;;;10.90;33.30;;;;;;4928353;29;20214;-77
2023/12/14 15:50:01;;;;;;;17.50;16.20;;;10.80;33.90;;;;;;4926031;29;20181;-76
2023/12/14 15:52:28;;;;;;;15.87;14.97;;;10.80;33.80;;;;;;4921362;29;20611;-77
2023/12/14 15:54:53;;;;;;;16.93;15.80;;;10.40;35.20;;;;;;4916823;29;20177;-77
2023/12/14 15:57:19;;;;;;;17.07;15.87;;;10.10;36.60;;;;;;4916954;29;20456;-77
2023/12/14 15:59:44;;;;;;;15.03;14.13;;;9.80;39.30;;;;;;4925511;29;20185;-78
2023/12/14 16:02:10;;;;;;;15.63;14.63;;;10.00;38.40;;;;;;4914590;29;20313;-77